Ana Sayfa
METAR-TAF:

METAR-TAF

Havaalanları :

St. Francis, Kansas, Amerika Birleşik Devletleri

Enlem: 39-45-40N, Boylam: 101-47-45W, yükseklik: 1040 m

Güncel hava durumu gözlemi

Rapor saat 17:35 UTC de 32 dakika önce yapıldı.
Rüzgar doğudan 16 kt
Sıcaklık 17°C
Nem 55%
Basınç 1025 hPa
Görüş mesafesi: 16.1 km
2800 ft yükseklikte çok bulutlu

METAR: KSYF 191735Z AUTO 10016KT 10SM OVC028 17/08 A3027 RMK AO2

Saat: 13:07 (18:07 UTC)


TAF: eksik

4.000'den fazla havaalanı için hava durumu gözlemleri ve tahminleri (METAR ve TAF raporları).

Kullanılabilir istasyonlar harita üzerinde sarı ve kırmızı noktalarla gösterilir.

İstasyonun adını görmek için fareyi noktanın üzerinde gezdirin.

Sonrasında hava gözlem ve tahminlerini görmek için tıklayın.

Haritayı değiştirmek için: yaklaştırmak için siyah artı işaretli yeşil düğmeye ve uzaklaştırmak için de eksi işaretli düğmeye hızla tıklayın; bitişik haritalar için yeşil okları kullanın.


METAR-TAF: